Flight Track Log - Related Links

Times and Time Zones

All times are in EDT time to prevent confusion due to time zone crossing. See the ASQ4209 flight status page for this flight to view local times or setup timezone preferences in your user account.

Time Position Orientation Groundspeed Altitude Reporting Facility
EDT Latitude Longitude Course Direction KTS MPH feet Rate Location/Type
Sun 08:45:58 AM 41.4214 -81.8375 90° East 169 194 2,400  Level Cleveland Center
Sun 08:46:27 AM 41.4489 -81.8158 31° Northeast 206 237 3,400 2,831 Climbing Cleveland Center
Sun 08:47:27 AM 41.5014 -81.7753 30° Northeast 242 278 6,600 3,350 Climbing Cleveland Center
Sun 08:48:00 AM 41.6579 -81.5922 37° Northeast  Level FlightAware Approximate
Sun 08:48:27 AM 41.5644 -81.7264 30° Northeast 253 291 10,100  Level Cleveland Center
Sun 08:49:00 AM 41.7446 -81.5055 37° Northeast  Level FlightAware Approximate
Sun 08:49:27 AM 41.6358 -81.6667 32° Northeast 272 313 11,800  Level Cleveland Center
Sun 08:50:00 AM 41.8313 -81.4187 37° Northeast  Level FlightAware Approximate
Sun 08:50:27 AM 41.7056 -81.5817 42° Northeast 315 362 13,700  Level Cleveland Center
Sun 08:51:00 AM 41.8500 -81.2778 90° East  Level FlightAware Approximate
Sun 08:51:27 AM 41.7792 -81.4936 42° Northeast 346 398 15,800  Level Cleveland Center
Sun 08:52:27 AM 41.8403 -81.3997 49° Northeast 357 411 17,500 1,500 Climbing Cleveland Center
Sun 08:53:27 AM 41.8642 -81.2578 77° East 370 426 18,800 1,450 Climbing Cleveland Center
Sun 08:54:27 AM 41.8878 -81.1131 78° East 385 443 20,400 1,550 Climbing Cleveland Center
Sun 08:55:27 AM 41.9114 -80.9653 78° East 401 461 21,900 1,550 Climbing Cleveland Center
Sun 08:56:27 AM 41.9347 -80.8147 78° East 408 470 23,500 1,450 Climbing Cleveland Center
Sun 08:57:27 AM 41.9619 -80.6531 77° East 413 475 24,800 1,300 Climbing Cleveland Center
Sun 08:58:27 AM 41.9850 -80.4939 79° East 413 475 26,100 1,350 Climbing Cleveland Center
Sun 08:59:27 AM 42.0097 -80.3400 78° East 413 475 27,500 1,450 Climbing Cleveland Center
Sun 09:00:27 AM 42.0322 -80.1861 79° East 413 475 29,000 1,450 Climbing Cleveland Center
Sun 09:01:27 AM 42.0525 -80.0350 80° East 413 475 30,400 1,000 Climbing Cleveland Center
Sun 09:02:27 AM 42.0744 -79.8811 79° East 413 475 31,000 300 Climbing Cleveland Center
Sun 09:03:27 AM 42.0964 -79.7186 80° East 419 482 31,000  Level Cleveland Center
Sun 09:04:27 AM 42.1200 -79.5531 79° East 432 497 31,000  Level Cleveland Center
Sun 09:05:27 AM 42.1414 -79.3903 80° East 439 505 31,000  Level Cleveland Center
Sun 09:06:27 AM 42.1628 -79.2358 79° East 432 497 31,000  Level Cleveland Center
Sun 09:07:27 AM 42.1817 -79.0869 80° East 418 481 31,000  Level Cleveland Center
Sun 09:08:27 AM 42.2006 -78.9378 80° East 404 465 31,000  Level Cleveland Center
Sun 09:09:27 AM 42.2211 -78.7917 79° East 404 465 31,000  Level Cleveland Center
Sun 09:10:27 AM 42.2417 -78.6339 80° East 404 465 31,000  Level Cleveland Center
Sun 09:11:27 AM 42.2617 -78.4761 80° East 419 482 31,000  Level Cleveland Center
Sun 09:12:27 AM 42.2817 -78.3211 80° East 419 482 31,000  Level Cleveland Center
Sun 09:13:27 AM 42.3014 -78.1661 80° East 424 488 31,000  Level Cleveland Center
Sun 09:14:27 AM 42.3211 -78.0081 80° East 424 488 31,000  Level Cleveland Center
Sun 09:15:27 AM 42.3361 -77.8556 82° East 419 482 31,000  Level Cleveland Center
Sun 09:16:27 AM 42.3575 -77.7003 79° East 419 482 31,000  Level Cleveland Center
Sun 09:17:27 AM 42.3744 -77.5475 81° East 414 476 31,000  Level Cleveland Center
Sun 09:18:27 AM 42.3931 -77.3892 81° East 414 476 31,000  Level Cleveland Center
Sun 09:19:27 AM 42.4094 -77.2281 82° East 414 476 31,000  Level Cleveland Center
Sun 09:21:24 AM 42.4456 -76.9144 81° East 447 514 31,000  Level Boston Center
Sun 09:22:24 AM 42.4619 -76.7636 82° East 431 496 31,000  Level Boston Center
Sun 09:23:24 AM 42.4778 -76.6156 82° East 412 474 31,000  Level Boston Center
Sun 09:24:24 AM 42.4936 -76.4672 82° East 399 459 31,000 -50 Level Boston Center
Sun 09:25:24 AM 42.5092 -76.3217 82° East 394 453 30,900 -500 Descending Boston Center
Sun 09:26:24 AM 42.5239 -76.1900 81° East 394 453 30,000 -900 Descending Boston Center
Sun 09:27:24 AM 42.5392 -76.0472 82° East 389 448 29,100 -1,450 Descending Boston Center
Sun 09:28:24 AM 42.5536 -75.9128 82° East 377 434 27,100 -2,000 Descending Boston Center
Sun 09:29:24 AM 42.5617 -75.7836 85° East 360 414 25,100 -1,950 Descending Boston Center
Sun 09:30:24 AM 42.5592 -75.6536 91° East 350 403 23,200 -1,750 Descending Boston Center
Sun 09:31:24 AM 42.5564 -75.5267 92° East 344 396 21,600 -1,800 Descending Boston Center
Sun 09:32:24 AM 42.5494 -75.3939 94° East 331 381 19,600 -1,850 Descending Boston Center
Sun 09:33:24 AM 42.5381 -75.2750 97° East 325 374 17,900 -1,700 Descending Boston Center
Sun 09:34:24 AM 42.5308 -75.1450 94° East 330 380 16,200 -1,700 Descending Boston Center
Sun 09:35:24 AM 42.5211 -75.0206 96° East 330 380 14,500 -1,700 Descending Boston Center
Sun 09:36:24 AM 42.5114 -74.8933 96° East 330 380 12,800 -1,450 Descending Boston Center
Sun 09:37:24 AM 42.5014 -74.7719 96° East 346 398 11,600 -919 Descending Boston Center
Sun 09:38:15 AM 42.4933 -74.6589 95° East 315 362 11,100 -324 Descending Boston Center
Sun 09:39:15 AM 42.4831 -74.5431 97° East 311 358 11,000 -298 Descending Boston Center
Sun 09:40:16 AM 42.4892 -74.4419 85° East 257 296 10,500 -1,190 Descending Boston Center
Sun 09:41:16 AM 42.5033 -74.3439 79° East 245 282 8,600 -1,983 Descending Boston Center
Sun 09:42:17 AM 42.5194 -74.2514 77° East 259 298 6,500 -1,875 Descending Boston Center
Sun 09:43:24 AM 42.5603 -74.1736 55° Northeast 240 276 4,600 -1,339 Descending Boston Center
Sun 09:44:18 AM 42.5989 -74.1014 54° Northeast 234 269 3,800 -574 Descending Boston Center
Sun 09:45:19 AM 42.6353 -74.0261 57° Northeast 228 262 3,500 -148 Descending Boston Center
Sun 09:46:20 AM 42.6572 -73.9506 68° East 234 269 3,500 -99 Level Boston Center
Sun 09:47:20 AM 42.6667 -73.8633 82° East 233 268 3,300 -545 Descending Boston Center
Sun 09:48:21 AM 42.6717 -73.7814 85° East 222 255 2,400 -541 Descending Boston Center
Sun 09:49:22 AM 42.6975 -73.7228 59° Northeast 187 215 2,200 -347 Descending Boston Center
Sun 09:50:22 AM 42.7369 -73.7236 359° North 110 127 1,700 -645 Descending Boston Center
Sun 09:51:23 AM 42.7492 -73.7606 294° West 112 129 900 -787 Descending Boston Center
Sun 09:53:00 AM 42.7333 -73.8000 270° West  Level FlightAware Approximate

Login

Don't have an account? Register now (free) for customized features, flight alerts, and more!